sensor_id;sensor_type;location;lat;lon;timestamp;temperature;humidity
18002;DHT22;9126;48.160;17.130;2022-08-21T00:00:45;21.20;67.70
18002;DHT22;9126;48.160;17.130;2022-08-21T00:03:12;21.20;67.90
18002;DHT22;9126;48.160;17.130;2022-08-21T00:05:45;21.20;68.10
18002;DHT22;9126;48.160;17.130;2022-08-21T00:08:13;21.20;68.20
18002;DHT22;9126;48.160;17.130;2022-08-21T00:10:44;21.30;68.10
18002;DHT22;9126;48.160;17.130;2022-08-21T00:13:12;21.30;68.00
18002;DHT22;9126;48.160;17.130;2022-08-21T00:15:40;21.30;67.90
18002;DHT22;9126;48.160;17.130;2022-08-21T00:18:09;21.30;68.00
18002;DHT22;9126;48.160;17.130;2022-08-21T00:20:38;21.30;68.10
18002;DHT22;9126;48.160;17.130;2022-08-21T00:23:06;21.30;68.10
18002;DHT22;9126;48.160;17.130;2022-08-21T00:25:33;21.20;68.00
18002;DHT22;9126;48.160;17.130;2022-08-21T00:28:02;21.20;68.10
18002;DHT22;9126;48.160;17.130;2022-08-21T00:30:31;21.20;68.10
18002;DHT22;9126;48.160;17.130;2022-08-21T00:32:58;21.20;68.90
18002;DHT22;9126;48.160;17.130;2022-08-21T00:35:29;21.20;68.30
18002;DHT22;9126;48.160;17.130;2022-08-21T00:37:56;21.20;68.30
18002;DHT22;9126;48.160;17.130;2022-08-21T00:40:29;21.10;68.30
18002;DHT22;9126;48.160;17.130;2022-08-21T00:42:57;21.10;68.20
18002;DHT22;9126;48.160;17.130;2022-08-21T00:45:26;21.10;68.30
18002;DHT22;9126;48.160;17.130;2022-08-21T00:47:55;21.10;68.30
18002;DHT22;9126;48.160;17.130;2022-08-21T00:50:26;21.10;68.10
18002;DHT22;9126;48.160;17.130;2022-08-21T00:52:55;21.10;68.10
18002;DHT22;9126;48.160;17.130;2022-08-21T00:55:24;21.10;68.00
18002;DHT22;9126;48.160;17.130;2022-08-21T00:57:54;21.20;68.00
18002;DHT22;9126;48.160;17.130;2022-08-21T01:00:24;21.30;67.90
18002;DHT22;9126;48.160;17.130;2022-08-21T01:02:55;21.30;67.70
18002;DHT22;9126;48.160;17.130;2022-08-21T01:05:22;21.20;67.80
18002;DHT22;9126;48.160;17.130;2022-08-21T01:07:49;21.20;67.70
18002;DHT22;9126;48.160;17.130;2022-08-21T01:10:17;21.20;67.70
18002;DHT22;9126;48.160;17.130;2022-08-21T01:12:44;21.20;67.60
18002;DHT22;9126;48.160;17.130;2022-08-21T01:15:13;21.10;67.60
18002;DHT22;9126;48.160;17.130;2022-08-21T01:17:41;21.10;67.70
18002;DHT22;9126;48.160;17.130;2022-08-21T01:20:11;21.10;67.80
18002;DHT22;9126;48.160;17.130;2022-08-21T01:22:40;21.00;67.70
18002;DHT22;9126;48.160;17.130;2022-08-21T01:25:09;21.00;67.80
18002;DHT22;9126;48.160;17.130;2022-08-21T01:27:37;21.00;67.80
18002;DHT22;9126;48.160;17.130;2022-08-21T01:30:10;21.00;67.70
18002;DHT22;9126;48.160;17.130;2022-08-21T01:32:38;21.00;67.70
18002;DHT22;9126;48.160;17.130;2022-08-21T01:35:06;21.00;67.80
18002;DHT22;9126;48.160;17.130;2022-08-21T01:37:33;20.90;67.80
18002;DHT22;9126;48.160;17.130;2022-08-21T01:40:03;20.90;67.90
18002;DHT22;9126;48.160;17.130;2022-08-21T01:42:31;20.80;68.00
18002;DHT22;9126;48.160;17.130;2022-08-21T01:44:58;20.80;68.20
18002;DHT22;9126;48.160;17.130;2022-08-21T01:47:25;20.80;68.20
18002;DHT22;9126;48.160;17.130;2022-08-21T01:49:52;20.90;68.30
18002;DHT22;9126;48.160;17.130;2022-08-21T01:52:19;20.90;68.10
18002;DHT22;9126;48.160;17.130;2022-08-21T01:54:47;20.80;68.10
18002;DHT22;9126;48.160;17.130;2022-08-21T01:57:16;20.80;68.20
18002;DHT22;9126;48.160;17.130;2022-08-21T01:59:43;20.70;68.40
18002;DHT22;9126;48.160;17.130;2022-08-21T02:02:10;20.60;68.50
18002;DHT22;9126;48.160;17.130;2022-08-21T02:04:37;20.70;68.60
18002;DHT22;9126;48.160;17.130;2022-08-21T02:07:04;20.70;68.50
18002;DHT22;9126;48.160;17.130;2022-08-21T02:09:32;20.70;68.60
18002;DHT22;9126;48.160;17.130;2022-08-21T02:11:59;20.70;68.70
18002;DHT22;9126;48.160;17.130;2022-08-21T02:14:28;20.70;68.70
18002;DHT22;9126;48.160;17.130;2022-08-21T02:16:56;20.70;68.80
18002;DHT22;9126;48.160;17.130;2022-08-21T02:19:23;20.60;68.90
18002;DHT22;9126;48.160;17.130;2022-08-21T02:21:50;20.60;69.10
18002;DHT22;9126;48.160;17.130;2022-08-21T02:24:17;20.50;69.30
18002;DHT22;9126;48.160;17.130;2022-08-21T02:26:44;20.50;69.40
18002;DHT22;9126;48.160;17.130;2022-08-21T02:29:11;20.50;69.60
18002;DHT22;9126;48.160;17.130;2022-08-21T02:31:39;20.40;69.80
18002;DHT22;9126;48.160;17.130;2022-08-21T02:34:07;20.50;70.00
18002;DHT22;9126;48.160;17.130;2022-08-21T02:36:34;20.50;70.00
18002;DHT22;9126;48.160;17.130;2022-08-21T02:39:01;20.40;70.10
18002;DHT22;9126;48.160;17.130;2022-08-21T02:41:29;20.40;70.20
18002;DHT22;9126;48.160;17.130;2022-08-21T02:43:57;20.40;70.30
18002;DHT22;9126;48.160;17.130;2022-08-21T02:46:24;20.50;70.30
18002;DHT22;9126;48.160;17.130;2022-08-21T02:48:52;20.50;70.30
18002;DHT22;9126;48.160;17.130;2022-08-21T02:51:19;20.40;70.30
18002;DHT22;9126;48.160;17.130;2022-08-21T02:53:48;20.50;70.50
18002;DHT22;9126;48.160;17.130;2022-08-21T02:56:18;20.40;70.40
18002;DHT22;9126;48.160;17.130;2022-08-21T02:58:48;20.40;70.60
18002;DHT22;9126;48.160;17.130;2022-08-21T03:01:16;20.40;70.80
18002;DHT22;9126;48.160;17.130;2022-08-21T03:03:45;20.40;70.80
18002;DHT22;9126;48.160;17.130;2022-08-21T03:06:18;20.30;71.00
18002;DHT22;9126;48.160;17.130;2022-08-21T03:08:46;20.30;71.30
18002;DHT22;9126;48.160;17.130;2022-08-21T03:11:14;20.30;71.50
18002;DHT22;9126;48.160;17.130;2022-08-21T03:13:42;20.20;71.50
18002;DHT22;9126;48.160;17.130;2022-08-21T03:16:09;20.20;71.70
18002;DHT22;9126;48.160;17.130;2022-08-21T03:18:37;20.20;71.80
18002;DHT22;9126;48.160;17.130;2022-08-21T03:21:04;20.20;71.90
18002;DHT22;9126;48.160;17.130;2022-08-21T03:23:33;20.30;72.20
18002;DHT22;9126;48.160;17.130;2022-08-21T03:26:00;20.30;72.10
18002;DHT22;9126;48.160;17.130;2022-08-21T03:28:28;20.30;72.30
18002;DHT22;9126;48.160;17.130;2022-08-21T03:30:55;20.20;72.40
18002;DHT22;9126;48.160;17.130;2022-08-21T03:33:23;20.30;72.50
18002;DHT22;9126;48.160;17.130;2022-08-21T03:35:58;20.30;72.50
18002;DHT22;9126;48.160;17.130;2022-08-21T03:38:27;20.30;72.60
18002;DHT22;9126;48.160;17.130;2022-08-21T03:40:56;20.40;72.70
18002;DHT22;9126;48.160;17.130;2022-08-21T03:43:23;20.30;72.70
18002;DHT22;9126;48.160;17.130;2022-08-21T03:45:50;20.30;72.80
18002;DHT22;9126;48.160;17.130;2022-08-21T03:48:18;20.30;73.50
18002;DHT22;9126;48.160;17.130;2022-08-21T03:50:45;20.30;73.50
18002;DHT22;9126;48.160;17.130;2022-08-21T03:53:15;20.30;72.90
18002;DHT22;9126;48.160;17.130;2022-08-21T03:55:44;20.30;72.90
18002;DHT22;9126;48.160;17.130;2022-08-21T03:58:13;20.30;73.10
18002;DHT22;9126;48.160;17.130;2022-08-21T04:00:40;20.30;73.10
18002;DHT22;9126;48.160;17.130;2022-08-21T04:03:07;20.30;73.20
18002;DHT22;9126;48.160;17.130;2022-08-21T04:05:34;20.30;73.20
18002;DHT22;9126;48.160;17.130;2022-08-21T04:08:04;20.40;73.30
18002;DHT22;9126;48.160;17.130;2022-08-21T04:10:35;20.40;73.10
18002;DHT22;9126;48.160;17.130;2022-08-21T04:13:03;20.30;73.10
18002;DHT22;9126;48.160;17.130;2022-08-21T04:15:32;20.40;73.20
18002;DHT22;9126;48.160;17.130;2022-08-21T04:18:00;20.40;73.20
18002;DHT22;9126;48.160;17.130;2022-08-21T04:20:27;20.40;73.20
18002;DHT22;9126;48.160;17.130;2022-08-21T04:22:54;20.40;73.20
18002;DHT22;9126;48.160;17.130;2022-08-21T04:25:23;20.40;73.20
18002;DHT22;9126;48.160;17.130;2022-08-21T04:27:51;20.50;73.10
18002;DHT22;9126;48.160;17.130;2022-08-21T04:30:18;20.50;73.10
18002;DHT22;9126;48.160;17.130;2022-08-21T04:32:49;20.50;73.10
18002;DHT22;9126;48.160;17.130;2022-08-21T04:35:20;20.50;73.00
18002;DHT22;9126;48.160;17.130;2022-08-21T04:37:47;20.60;73.00
18002;DHT22;9126;48.160;17.130;2022-08-21T04:40:16;20.60;72.90
18002;DHT22;9126;48.160;17.130;2022-08-21T04:42:46;20.50;73.50
18002;DHT22;9126;48.160;17.130;2022-08-21T04:45:21;20.60;72.80
18002;DHT22;9126;48.160;17.130;2022-08-21T04:47:51;20.70;72.50
18002;DHT22;9126;48.160;17.130;2022-08-21T04:50:19;20.70;72.30
18002;DHT22;9126;48.160;17.130;2022-08-21T04:52:46;20.80;72.10
18002;DHT22;9126;48.160;17.130;2022-08-21T04:55:15;20.70;72.10
18002;DHT22;9126;48.160;17.130;2022-08-21T04:57:42;20.80;72.20
18002;DHT22;9126;48.160;17.130;2022-08-21T05:00:11;20.80;71.90
18002;DHT22;9126;48.160;17.130;2022-08-21T05:02:40;20.80;71.90
18002;DHT22;9126;48.160;17.130;2022-08-21T05:05:09;20.90;72.50
18002;DHT22;9126;48.160;17.130;2022-08-21T05:07:37;20.80;71.80
18002;DHT22;9126;48.160;17.130;2022-08-21T05:10:05;20.80;71.80
18002;DHT22;9126;48.160;17.130;2022-08-21T05:12:34;20.80;71.70
18002;DHT22;9126;48.160;17.130;2022-08-21T05:15:02;20.80;71.50
18002;DHT22;9126;48.160;17.130;2022-08-21T05:17:29;20.80;71.40
18002;DHT22;9126;48.160;17.130;2022-08-21T05:19:56;20.80;72.10
18002;DHT22;9126;48.160;17.130;2022-08-21T05:22:26;20.90;72.10
18002;DHT22;9126;48.160;17.130;2022-08-21T05:24:53;20.90;71.30
18002;DHT22;9126;48.160;17.130;2022-08-21T05:27:20;20.90;71.10
18002;DHT22;9126;48.160;17.130;2022-08-21T05:29:47;20.90;71.20
18002;DHT22;9126;48.160;17.130;2022-08-21T05:32:14;21.00;71.00
18002;DHT22;9126;48.160;17.130;2022-08-21T05:34:41;21.00;70.80
18002;DHT22;9126;48.160;17.130;2022-08-21T05:37:10;21.00;70.80
18002;DHT22;9126;48.160;17.130;2022-08-21T05:39:40;21.00;70.60
18002;DHT22;9126;48.160;17.130;2022-08-21T05:42:08;21.10;70.50
18002;DHT22;9126;48.160;17.130;2022-08-21T05:44:35;21.10;70.40
18002;DHT22;9126;48.160;17.130;2022-08-21T05:47:03;21.20;70.20
18002;DHT22;9126;48.160;17.130;2022-08-21T05:49:31;21.20;69.90
18002;DHT22;9126;48.160;17.130;2022-08-21T05:51:58;21.30;69.80
18002;DHT22;9126;48.160;17.130;2022-08-21T05:54:26;21.30;69.50
18002;DHT22;9126;48.160;17.130;2022-08-21T05:56:54;21.30;69.40
18002;DHT22;9126;48.160;17.130;2022-08-21T05:59:21;21.30;69.20
18002;DHT22;9126;48.160;17.130;2022-08-21T06:01:48;21.40;69.10
18002;DHT22;9126;48.160;17.130;2022-08-21T06:04:18;21.50;69.00
18002;DHT22;9126;48.160;17.130;2022-08-21T06:06:45;21.60;68.70
18002;DHT22;9126;48.160;17.130;2022-08-21T06:09:13;21.60;68.40
18002;DHT22;9126;48.160;17.130;2022-08-21T06:11:40;21.70;68.20
18002;DHT22;9126;48.160;17.130;2022-08-21T06:14:08;21.70;68.00
18002;DHT22;9126;48.160;17.130;2022-08-21T06:16:35;21.80;67.80
18002;DHT22;9126;48.160;17.130;2022-08-21T06:19:02;21.80;67.50
18002;DHT22;9126;48.160;17.130;2022-08-21T06:21:29;21.90;67.40
18002;DHT22;9126;48.160;17.130;2022-08-21T06:23:57;21.90;67.20
18002;DHT22;9126;48.160;17.130;2022-08-21T06:26:24;22.00;66.90
18002;DHT22;9126;48.160;17.130;2022-08-21T06:28:51;21.90;66.90
18002;DHT22;9126;48.160;17.130;2022-08-21T06:31:23;22.00;67.40
18002;DHT22;9126;48.160;17.130;2022-08-21T06:33:51;22.10;66.60
18002;DHT22;9126;48.160;17.130;2022-08-21T06:36:19;22.10;66.40
18002;DHT22;9126;48.160;17.130;2022-08-21T06:38:47;22.10;66.30
18002;DHT22;9126;48.160;17.130;2022-08-21T06:41:16;22.10;66.10
18002;DHT22;9126;48.160;17.130;2022-08-21T06:43:43;22.10;65.90
18002;DHT22;9126;48.160;17.130;2022-08-21T06:46:10;22.20;66.00
18002;DHT22;9126;48.160;17.130;2022-08-21T06:48:38;22.30;65.70
18002;DHT22;9126;48.160;17.130;2022-08-21T06:51:05;22.40;65.40
18002;DHT22;9126;48.160;17.130;2022-08-21T06:53:33;22.50;65.10
18002;DHT22;9126;48.160;17.130;2022-08-21T06:56:00;22.70;64.70
18002;DHT22;9126;48.160;17.130;2022-08-21T06:58:27;22.90;64.30
18002;DHT22;9126;48.160;17.130;2022-08-21T07:00:54;23.00;63.80
18002;DHT22;9126;48.160;17.130;2022-08-21T07:03:24;23.10;63.40
18002;DHT22;9126;48.160;17.130;2022-08-21T07:05:54;23.20;63.00
18002;DHT22;9126;48.160;17.130;2022-08-21T07:08:23;23.30;62.70
18002;DHT22;9126;48.160;17.130;2022-08-21T07:10:51;23.40;62.20
18002;DHT22;9126;48.160;17.130;2022-08-21T07:13:19;23.50;61.80
18002;DHT22;9126;48.160;17.130;2022-08-21T07:15:47;23.50;61.40
18002;DHT22;9126;48.160;17.130;2022-08-21T07:18:15;23.30;61.20
18002;DHT22;9126;48.160;17.130;2022-08-21T07:20:42;23.30;61.20
18002;DHT22;9126;48.160;17.130;2022-08-21T07:23:14;23.40;61.10
18002;DHT22;9126;48.160;17.130;2022-08-21T07:25:45;23.30;61.00
18002;DHT22;9126;48.160;17.130;2022-08-21T07:28:12;23.30;60.90
18002;DHT22;9126;48.160;17.130;2022-08-21T07:30:39;23.30;60.90
18002;DHT22;9126;48.160;17.130;2022-08-21T07:33:06;23.40;60.80
18002;DHT22;9126;48.160;17.130;2022-08-21T07:35:33;23.50;60.60
18002;DHT22;9126;48.160;17.130;2022-08-21T07:38:00;23.60;60.40
18002;DHT22;9126;48.160;17.130;2022-08-21T07:40:29;23.60;60.20
18002;DHT22;9126;48.160;17.130;2022-08-21T07:42:56;23.60;60.00
18002;DHT22;9126;48.160;17.130;2022-08-21T07:45:23;23.80;59.90
18002;DHT22;9126;48.160;17.130;2022-08-21T07:47:51;23.90;59.80
18002;DHT22;9126;48.160;17.130;2022-08-21T07:50:19;24.10;59.50
18002;DHT22;9126;48.160;17.130;2022-08-21T07:52:46;24.10;59.20
18002;DHT22;9126;48.160;17.130;2022-08-21T07:55:15;24.00;59.00
18002;DHT22;9126;48.160;17.130;2022-08-21T07:57:44;24.10;58.90
18002;DHT22;9126;48.160;17.130;2022-08-21T08:00:14;24.20;58.70
18002;DHT22;9126;48.160;17.130;2022-08-21T08:02:44;24.10;58.60
18002;DHT22;9126;48.160;17.130;2022-08-21T08:05:12;24.20;58.60
18002;DHT22;9126;48.160;17.130;2022-08-21T08:07:39;24.30;59.10
18002;DHT22;9126;48.160;17.130;2022-08-21T08:10:07;24.30;58.50
18002;DHT22;9126;48.160;17.130;2022-08-21T08:12:34;24.30;58.40
18002;DHT22;9126;48.160;17.130;2022-08-21T08:15:05;24.10;58.50
18002;DHT22;9126;48.160;17.130;2022-08-21T08:17:33;24.10;58.60
18002;DHT22;9126;48.160;17.130;2022-08-21T08:20:00;24.00;58.60
18002;DHT22;9126;48.160;17.130;2022-08-21T08:22:28;24.10;58.80
18002;DHT22;9126;48.160;17.130;2022-08-21T08:24:55;24.00;58.70
18002;DHT22;9126;48.160;17.130;2022-08-21T08:27:22;24.00;58.80
18002;DHT22;9126;48.160;17.130;2022-08-21T08:29:50;23.90;58.90
18002;DHT22;9126;48.160;17.130;2022-08-21T08:32:20;23.80;59.10
18002;DHT22;9126;48.160;17.130;2022-08-21T08:34:48;23.80;59.20
18002;DHT22;9126;48.160;17.130;2022-08-21T08:37:18;23.90;59.20
18002;DHT22;9126;48.160;17.130;2022-08-21T08:39:46;23.90;59.20
18002;DHT22;9126;48.160;17.130;2022-08-21T08:42:15;24.10;59.20
18002;DHT22;9126;48.160;17.130;2022-08-21T08:44:44;23.90;59.10
18002;DHT22;9126;48.160;17.130;2022-08-21T08:47:13;23.90;59.20
18002;DHT22;9126;48.160;17.130;2022-08-21T08:49:53;24.10;59.10
18002;DHT22;9126;48.160;17.130;2022-08-21T08:52:24;24.30;58.80
18002;DHT22;9126;48.160;17.130;2022-08-21T08:55:00;24.30;58.60
18002;DHT22;9126;48.160;17.130;2022-08-21T08:57:28;24.20;58.50
18002;DHT22;9126;48.160;17.130;2022-08-21T08:59:58;23.90;58.70
18002;DHT22;9126;48.160;17.130;2022-08-21T09:02:25;23.80;58.90
18002;DHT22;9126;48.160;17.130;2022-08-21T09:04:56;23.60;59.20
18002;DHT22;9126;48.160;17.130;2022-08-21T09:07:35;23.60;59.50
18002;DHT22;9126;48.160;17.130;2022-08-21T09:10:12;23.50;59.60
18002;DHT22;9126;48.160;17.130;2022-08-21T09:12:49;23.50;59.70
18002;DHT22;9126;48.160;17.130;2022-08-21T09:15:25;23.50;59.80
18002;DHT22;9126;48.160;17.130;2022-08-21T09:18:16;23.60;59.90
18002;DHT22;9126;48.160;17.130;2022-08-21T09:21:01;23.60;60.50
18002;DHT22;9126;48.160;17.130;2022-08-21T09:23:37;23.60;59.90
18002;DHT22;9126;48.160;17.130;2022-08-21T09:26:12;23.50;60.50
18002;DHT22;9126;48.160;17.130;2022-08-21T09:28:40;23.50;60.70
18002;DHT22;9126;48.160;17.130;2022-08-21T09:31:11;23.60;60.90
18002;DHT22;9126;48.160;17.130;2022-08-21T09:33:42;23.80;60.90
18002;DHT22;9126;48.160;17.130;2022-08-21T09:36:10;23.70;60.80
18002;DHT22;9126;48.160;17.130;2022-08-21T09:38:37;23.80;61.00
18002;DHT22;9126;48.160;17.130;2022-08-21T09:41:07;23.90;60.80
18002;DHT22;9126;48.160;17.130;2022-08-21T09:43:35;24.20;61.20
18002;DHT22;9126;48.160;17.130;2022-08-21T09:46:07;24.30;60.30
18002;DHT22;9126;48.160;17.130;2022-08-21T09:48:44;24.30;60.00
18002;DHT22;9126;48.160;17.130;2022-08-21T09:51:15;24.50;59.80
18002;DHT22;9126;48.160;17.130;2022-08-21T09:53:45;24.50;59.40
18002;DHT22;9126;48.160;17.130;2022-08-21T09:56:28;24.30;59.40
18002;DHT22;9126;48.160;17.130;2022-08-21T09:59:16;24.10;59.30
18002;DHT22;9126;48.160;17.130;2022-08-21T10:01:46;24.00;59.50
18002;DHT22;9126;48.160;17.130;2022-08-21T10:04:13;23.90;59.80
18002;DHT22;9126;48.160;17.130;2022-08-21T10:06:42;24.10;59.80
18002;DHT22;9126;48.160;17.130;2022-08-21T10:09:12;24.30;59.50
18002;DHT22;9126;48.160;17.130;2022-08-21T10:11:40;24.40;59.30
18002;DHT22;9126;48.160;17.130;2022-08-21T10:14:15;24.70;58.90
18002;DHT22;9126;48.160;17.130;2022-08-21T10:16:52;24.90;58.60
18002;DHT22;9126;48.160;17.130;2022-08-21T10:19:30;24.80;58.40
18002;DHT22;9126;48.160;17.130;2022-08-21T10:22:10;25.10;58.30
18002;DHT22;9126;48.160;17.130;2022-08-21T10:24:49;25.30;57.80
18002;DHT22;9126;48.160;17.130;2022-08-21T10:27:25;25.10;57.60
18002;DHT22;9126;48.160;17.130;2022-08-21T10:30:00;25.10;58.10
18002;DHT22;9126;48.160;17.130;2022-08-21T10:32:47;25.30;57.60
18002;DHT22;9126;48.160;17.130;2022-08-21T10:35:23;25.50;57.30
18002;DHT22;9126;48.160;17.130;2022-08-21T10:38:17;25.60;57.00
18002;DHT22;9126;48.160;17.130;2022-08-21T10:40:52;25.50;56.70
18002;DHT22;9126;48.160;17.130;2022-08-21T10:43:27;25.30;57.20
18002;DHT22;9126;48.160;17.130;2022-08-21T10:46:02;25.20;56.90
18002;DHT22;9126;48.160;17.130;2022-08-21T10:48:36;25.30;57.50
18002;DHT22;9126;48.160;17.130;2022-08-21T10:51:10;25.10;56.80
18002;DHT22;9126;48.160;17.130;2022-08-21T10:53:54;24.90;57.10
18002;DHT22;9126;48.160;17.130;2022-08-21T10:56:25;24.80;57.30
18002;DHT22;9126;48.160;17.130;2022-08-21T10:59:05;24.80;57.50
18002;DHT22;9126;48.160;17.130;2022-08-21T11:01:41;24.70;57.80
18002;DHT22;9126;48.160;17.130;2022-08-21T11:04:13;24.90;57.80
18002;DHT22;9126;48.160;17.130;2022-08-21T11:06:46;25.30;57.50
18002;DHT22;9126;48.160;17.130;2022-08-21T11:09:17;25.50;57.00
18002;DHT22;9126;48.160;17.130;2022-08-21T11:11:49;25.60;56.70
18002;DHT22;9126;48.160;17.130;2022-08-21T11:14:28;25.80;56.40
18002;DHT22;9126;48.160;17.130;2022-08-21T11:17:02;25.70;56.10
18002;DHT22;9126;48.160;17.130;2022-08-21T11:19:36;25.90;56.00
18002;DHT22;9126;48.160;17.130;2022-08-21T11:22:13;26.20;55.60
18002;DHT22;9126;48.160;17.130;2022-08-21T11:24:47;25.90;55.90
18002;DHT22;9126;48.160;17.130;2022-08-21T11:27:21;25.70;55.20
18002;DHT22;9126;48.160;17.130;2022-08-21T11:29:55;25.50;55.60
18002;DHT22;9126;48.160;17.130;2022-08-21T11:32:54;25.40;55.70
18002;DHT22;9126;48.160;17.130;2022-08-21T11:35:32;25.50;55.80
18002;DHT22;9126;48.160;17.130;2022-08-21T11:41:19;25.70;55.20
18002;DHT22;9126;48.160;17.130;2022-08-21T11:43:57;25.50;55.00
18002;DHT22;9126;48.160;17.130;2022-08-21T11:46:33;25.70;54.90
18002;DHT22;9126;48.160;17.130;2022-08-21T11:49:13;25.90;54.80
18002;DHT22;9126;48.160;17.130;2022-08-21T11:51:48;26.00;54.30
18002;DHT22;9126;48.160;17.130;2022-08-21T11:54:23;26.00;54.40
18002;DHT22;9126;48.160;17.130;2022-08-21T11:56:55;26.20;54.10
18002;DHT22;9126;48.160;17.130;2022-08-21T11:59:33;26.30;53.80
18002;DHT22;9126;48.160;17.130;2022-08-21T12:02:03;26.40;53.60
18002;DHT22;9126;48.160;17.130;2022-08-21T12:04:35;26.30;53.50
18002;DHT22;9126;48.160;17.130;2022-08-21T12:07:11;26.40;53.40
18002;DHT22;9126;48.160;17.130;2022-08-21T12:09:40;26.00;53.30
18002;DHT22;9126;48.160;17.130;2022-08-21T12:12:26;26.00;53.50
18002;DHT22;9126;48.160;17.130;2022-08-21T12:15:16;25.70;53.60
18002;DHT22;9126;48.160;17.130;2022-08-21T12:17:56;25.60;53.60
18002;DHT22;9126;48.160;17.130;2022-08-21T12:20:33;25.70;53.90
18002;DHT22;9126;48.160;17.130;2022-08-21T12:23:16;25.70;53.80
18002;DHT22;9126;48.160;17.130;2022-08-21T12:25:46;25.70;53.80
18002;DHT22;9126;48.160;17.130;2022-08-21T12:28:22;25.70;53.70
18002;DHT22;9126;48.160;17.130;2022-08-21T12:30:50;25.90;53.70
18002;DHT22;9126;48.160;17.130;2022-08-21T12:33:24;26.20;53.40
18002;DHT22;9126;48.160;17.130;2022-08-21T12:36:00;26.50;53.00
18002;DHT22;9126;48.160;17.130;2022-08-21T12:38:29;26.70;52.80
18002;DHT22;9126;48.160;17.130;2022-08-21T12:41:01;26.90;52.40
18002;DHT22;9126;48.160;17.130;2022-08-21T12:43:35;26.80;52.30
18002;DHT22;9126;48.160;17.130;2022-08-21T12:46:04;26.80;52.20
18002;DHT22;9126;48.160;17.130;2022-08-21T12:48:35;26.70;51.90
18002;DHT22;9126;48.160;17.130;2022-08-21T12:51:09;26.60;51.70
18002;DHT22;9126;48.160;17.130;2022-08-21T12:53:43;26.50;51.70
18002;DHT22;9126;48.160;17.130;2022-08-21T12:56:13;26.40;51.90
18002;DHT22;9126;48.160;17.130;2022-08-21T12:58:45;26.40;51.80
18002;DHT22;9126;48.160;17.130;2022-08-21T13:01:19;26.50;51.80
18002;DHT22;9126;48.160;17.130;2022-08-21T13:03:48;27.00;51.50
18002;DHT22;9126;48.160;17.130;2022-08-21T13:06:17;27.00;50.80
18002;DHT22;9126;48.160;17.130;2022-08-21T13:08:48;27.20;50.60
18002;DHT22;9126;48.160;17.130;2022-08-21T13:11:20;27.60;50.20
18002;DHT22;9126;48.160;17.130;2022-08-21T13:13:51;27.70;49.60
18002;DHT22;9126;48.160;17.130;2022-08-21T13:16:21;28.10;49.40
18002;DHT22;9126;48.160;17.130;2022-08-21T13:18:55;27.90;49.00
18002;DHT22;9126;48.160;17.130;2022-08-21T13:21:28;27.80;48.80
18002;DHT22;9126;48.160;17.130;2022-08-21T13:24:08;27.40;48.80
18002;DHT22;9126;48.160;17.130;2022-08-21T13:26:36;27.20;48.90
18002;DHT22;9126;48.160;17.130;2022-08-21T13:29:09;27.00;49.00
18002;DHT22;9126;48.160;17.130;2022-08-21T13:31:38;26.50;49.60
18002;DHT22;9126;48.160;17.130;2022-08-21T13:34:09;26.50;49.80
18002;DHT22;9126;48.160;17.130;2022-08-21T13:36:41;26.30;49.80
18002;DHT22;9126;48.160;17.130;2022-08-21T13:39:11;26.40;50.00
18002;DHT22;9126;48.160;17.130;2022-08-21T13:41:42;26.20;50.00
18002;DHT22;9126;48.160;17.130;2022-08-21T13:44:18;26.00;50.40
18002;DHT22;9126;48.160;17.130;2022-08-21T13:46:46;25.70;50.70
18002;DHT22;9126;48.160;17.130;2022-08-21T13:49:15;25.40;51.10
18002;DHT22;9126;48.160;17.130;2022-08-21T13:51:44;25.20;51.60
18002;DHT22;9126;48.160;17.130;2022-08-21T13:54:20;24.90;52.30
18002;DHT22;9126;48.160;17.130;2022-08-21T13:56:49;24.80;52.80
18002;DHT22;9126;48.160;17.130;2022-08-21T13:59:27;24.60;53.30
18002;DHT22;9126;48.160;17.130;2022-08-21T14:01:56;24.40;54.50
18002;DHT22;9126;48.160;17.130;2022-08-21T14:04:31;24.20;54.30
18002;DHT22;9126;48.160;17.130;2022-08-21T14:07:03;24.10;54.80
18002;DHT22;9126;48.160;17.130;2022-08-21T14:09:42;23.90;55.30
18002;DHT22;9126;48.160;17.130;2022-08-21T14:12:13;23.70;55.70
18002;DHT22;9126;48.160;17.130;2022-08-21T14:14:43;23.60;56.20
18002;DHT22;9126;48.160;17.130;2022-08-21T14:17:13;23.40;56.70
18002;DHT22;9126;48.160;17.130;2022-08-21T14:19:42;23.40;57.20
18002;DHT22;9126;48.160;17.130;2022-08-21T14:22:31;23.50;57.40
18002;DHT22;9126;48.160;17.130;2022-08-21T14:25:01;23.50;57.60
18002;DHT22;9126;48.160;17.130;2022-08-21T14:27:31;23.70;57.50
18002;DHT22;9126;48.160;17.130;2022-08-21T14:30:03;23.80;57.30
18002;DHT22;9126;48.160;17.130;2022-08-21T14:32:38;23.70;57.60
18002;DHT22;9126;48.160;17.130;2022-08-21T14:35:06;23.60;57.60
18002;DHT22;9126;48.160;17.130;2022-08-21T14:37:34;23.50;58.10
18002;DHT22;9126;48.160;17.130;2022-08-21T14:40:03;23.60;58.10
18002;DHT22;9126;48.160;17.130;2022-08-21T14:42:30;23.70;57.90
18002;DHT22;9126;48.160;17.130;2022-08-21T14:45:13;23.60;58.10
18002;DHT22;9126;48.160;17.130;2022-08-21T14:47:40;23.60;58.20
18002;DHT22;9126;48.160;17.130;2022-08-21T14:50:09;23.50;58.30
18002;DHT22;9126;48.160;17.130;2022-08-21T14:52:37;23.40;58.50
18002;DHT22;9126;48.160;17.130;2022-08-21T14:55:05;23.50;58.40
18002;DHT22;9126;48.160;17.130;2022-08-21T14:57:32;23.50;58.50
18002;DHT22;9126;48.160;17.130;2022-08-21T15:00:03;23.40;58.90
18002;DHT22;9126;48.160;17.130;2022-08-21T15:02:30;23.30;58.50
18002;DHT22;9126;48.160;17.130;2022-08-21T15:04:57;23.30;58.70
18002;DHT22;9126;48.160;17.130;2022-08-21T15:07:25;23.50;58.70
18002;DHT22;9126;48.160;17.130;2022-08-21T15:09:52;23.60;58.40
18002;DHT22;9126;48.160;17.130;2022-08-21T15:12:19;23.50;58.30
18002;DHT22;9126;48.160;17.130;2022-08-21T15:14:46;23.30;58.40
18002;DHT22;9126;48.160;17.130;2022-08-21T15:17:15;23.20;58.70
18002;DHT22;9126;48.160;17.130;2022-08-21T15:19:42;23.10;58.80
18002;DHT22;9126;48.160;17.130;2022-08-21T15:22:09;23.00;59.00
18002;DHT22;9126;48.160;17.130;2022-08-21T15:24:37;23.20;59.10
18002;DHT22;9126;48.160;17.130;2022-08-21T15:27:06;23.40;58.80
18002;DHT22;9126;48.160;17.130;2022-08-21T15:29:34;23.50;58.60
18002;DHT22;9126;48.160;17.130;2022-08-21T15:32:13;23.60;58.40
18002;DHT22;9126;48.160;17.130;2022-08-21T15:34:43;23.60;58.20
18002;DHT22;9126;48.160;17.130;2022-08-21T15:37:10;23.40;58.10
18002;DHT22;9126;48.160;17.130;2022-08-21T15:39:37;23.40;58.40
18002;DHT22;9126;48.160;17.130;2022-08-21T15:42:05;23.40;58.30
18002;DHT22;9126;48.160;17.130;2022-08-21T15:44:32;23.40;58.40
18002;DHT22;9126;48.160;17.130;2022-08-21T15:46:59;23.50;58.30
18002;DHT22;9126;48.160;17.130;2022-08-21T15:49:27;23.60;58.60
18002;DHT22;9126;48.160;17.130;2022-08-21T15:51:55;23.50;57.90